sensor_id;sensor_type;location;lat;lon;timestamp;temperature;humidity
76855;DHT22;66343;44.588;33.450;2023-02-12T07:44:10;6.69;58.48
76855;DHT22;66343;44.588;33.450;2023-02-12T07:46:45;6.70;58.09
76855;DHT22;66343;44.588;33.450;2023-02-12T07:49:22;6.75;57.62
76855;DHT22;66343;44.588;33.450;2023-02-12T07:51:52;6.74;58.23
76855;DHT22;66343;44.588;33.450;2023-02-12T07:54:26;6.79;57.29
76855;DHT22;66343;44.588;33.450;2023-02-12T07:56:57;6.81;56.26
76855;DHT22;66343;44.588;33.450;2023-02-12T07:59:35;6.80;55.37
76855;DHT22;66343;44.588;33.450;2023-02-12T08:02:05;6.84;56.01
76855;DHT22;66343;44.588;33.450;2023-02-12T08:04:35;6.82;56.71
76855;DHT22;66343;44.588;33.450;2023-02-12T08:07:09;6.86;56.50
76855;DHT22;66343;44.588;33.450;2023-02-12T08:12:05;7.01;56.19
76855;DHT22;66343;44.588;33.450;2023-02-12T08:14:34;7.05;56.15
76855;DHT22;66343;44.588;33.450;2023-02-12T08:17:06;7.08;56.03
76855;DHT22;66343;44.588;33.450;2023-02-12T08:19:40;7.03;56.15
76855;DHT22;66343;44.588;33.450;2023-02-12T08:22:11;7.02;55.36
76855;DHT22;66343;44.588;33.450;2023-02-12T08:24:40;7.01;54.96
76855;DHT22;66343;44.588;33.450;2023-02-12T08:27:13;7.10;55.15
76855;DHT22;66343;44.588;33.450;2023-02-12T08:29:45;7.11;56.00
76855;DHT22;66343;44.588;33.450;2023-02-12T08:32:15;7.10;55.72
76855;DHT22;66343;44.588;33.450;2023-02-12T08:34:47;7.10;56.65
76855;DHT22;66343;44.588;33.450;2023-02-12T08:37:19;7.07;59.44
76855;DHT22;66343;44.588;33.450;2023-02-12T08:39:48;7.08;60.03
76855;DHT22;66343;44.588;33.450;2023-02-12T08:42:20;7.02;59.10
76855;DHT22;66343;44.588;33.450;2023-02-12T08:44:51;7.00;58.57
76855;DHT22;66343;44.588;33.450;2023-02-12T08:47:20;7.04;58.11
76855;DHT22;66343;44.588;33.450;2023-02-12T08:49:52;6.96;57.41
76855;DHT22;66343;44.588;33.450;2023-02-12T08:52:23;6.93;57.79
76855;DHT22;66343;44.588;33.450;2023-02-12T08:54:53;7.03;57.05
76855;DHT22;66343;44.588;33.450;2023-02-12T08:57:23;7.09;56.39
76855;DHT22;66343;44.588;33.450;2023-02-12T08:59:55;7.03;55.74
76855;DHT22;66343;44.588;33.450;2023-02-12T09:02:26;6.99;55.66
76855;DHT22;66343;44.588;33.450;2023-02-12T09:04:59;7.08;55.63
76855;DHT22;66343;44.588;33.450;2023-02-12T09:07:28;7.23;55.65
76855;DHT22;66343;44.588;33.450;2023-02-12T09:10:00;7.34;54.92
76855;DHT22;66343;44.588;33.450;2023-02-12T09:12:30;7.59;53.78
76855;DHT22;66343;44.588;33.450;2023-02-12T09:15:00;7.76;52.54
76855;DHT22;66343;44.588;33.450;2023-02-12T09:17:30;7.64;51.37
76855;DHT22;66343;44.588;33.450;2023-02-12T09:19:59;7.69;51.91
76855;DHT22;66343;44.588;33.450;2023-02-12T09:22:30;7.70;51.78
76855;DHT22;66343;44.588;33.450;2023-02-12T09:24:59;7.67;51.48
76855;DHT22;66343;44.588;33.450;2023-02-12T09:27:29;7.70;52.27
76855;DHT22;66343;44.588;33.450;2023-02-12T09:29:58;7.79;51.92
76855;DHT22;66343;44.588;33.450;2023-02-12T09:32:29;7.64;53.01
76855;DHT22;66343;44.588;33.450;2023-02-12T09:35:01;7.56;53.45
76855;DHT22;66343;44.588;33.450;2023-02-12T09:37:34;7.38;52.53
76855;DHT22;66343;44.588;33.450;2023-02-12T09:40:06;7.20;53.53
76855;DHT22;66343;44.588;33.450;2023-02-12T09:45:41;7.20;53.04
76855;DHT22;66343;44.588;33.450;2023-02-12T09:48:54;7.35;52.85
76855;DHT22;66343;44.588;33.450;2023-02-12T09:51:27;7.40;53.08
76855;DHT22;66343;44.588;33.450;2023-02-12T09:54:09;7.33;52.99
76855;DHT22;66343;44.588;33.450;2023-02-12T09:56:43;7.28;54.70
76855;DHT22;66343;44.588;33.450;2023-02-12T09:59:32;7.22;55.88
76855;DHT22;66343;44.588;33.450;2023-02-12T10:02:13;7.02;56.44
76855;DHT22;66343;44.588;33.450;2023-02-12T10:04:45;7.05;55.53
76855;DHT22;66343;44.588;33.450;2023-02-12T10:07:52;7.16;55.19
76855;DHT22;66343;44.588;33.450;2023-02-12T10:16:00;7.22;55.78
76855;DHT22;66343;44.588;33.450;2023-02-12T10:25:49;7.18;56.42
76855;DHT22;66343;44.588;33.450;2023-02-12T10:28:36;7.16;56.95
76855;DHT22;66343;44.588;33.450;2023-02-12T10:34:30;7.13;59.25
76855;DHT22;66343;44.588;33.450;2023-02-12T10:39:47;7.12;58.66
76855;DHT22;66343;44.588;33.450;2023-02-12T10:42:41;7.14;58.90
76855;DHT22;66343;44.588;33.450;2023-02-12T10:45:32;7.04;59.93
76855;DHT22;66343;44.588;33.450;2023-02-12T10:48:49;6.91;61.00
76855;DHT22;66343;44.588;33.450;2023-02-12T10:51:49;6.83;61.94
76855;DHT22;66343;44.588;33.450;2023-02-12T10:54:40;6.84;60.98
76855;DHT22;66343;44.588;33.450;2023-02-12T10:57:42;6.88;61.20
76855;DHT22;66343;44.588;33.450;2023-02-12T11:00:23;6.89;60.36
76855;DHT22;66343;44.588;33.450;2023-02-12T11:05:43;6.93;59.28
76855;DHT22;66343;44.588;33.450;2023-02-12T11:08:28;6.95;58.88
76855;DHT22;66343;44.588;33.450;2023-02-12T11:14:19;6.91;60.19
76855;DHT22;66343;44.588;33.450;2023-02-12T11:16:55;6.94;60.70
76855;DHT22;66343;44.588;33.450;2023-02-12T11:19:31;6.95;59.91
76855;DHT22;66343;44.588;33.450;2023-02-12T11:22:09;6.96;60.09
76855;DHT22;66343;44.588;33.450;2023-02-12T11:25:14;7.00;59.70
76855;DHT22;66343;44.588;33.450;2023-02-12T11:27:44;7.02;58.49
76855;DHT22;66343;44.588;33.450;2023-02-12T11:30:33;6.97;58.23
76855;DHT22;66343;44.588;33.450;2023-02-12T11:36:25;6.87;57.77
76855;DHT22;66343;44.588;33.450;2023-02-12T11:38:56;6.85;56.83
76855;DHT22;66343;44.588;33.450;2023-02-12T11:41:40;6.83;57.04
76855;DHT22;66343;44.588;33.450;2023-02-12T11:44:19;6.78;58.02
76855;DHT22;66343;44.588;33.450;2023-02-12T11:47:03;6.74;58.41
76855;DHT22;66343;44.588;33.450;2023-02-12T11:49:50;6.81;58.43
76855;DHT22;66343;44.588;33.450;2023-02-12T11:52:28;6.83;59.03
76855;DHT22;66343;44.588;33.450;2023-02-12T11:55:06;6.93;59.50
76855;DHT22;66343;44.588;33.450;2023-02-12T12:00:34;6.96;60.15
76855;DHT22;66343;44.588;33.450;2023-02-12T12:06:13;6.97;61.97
76855;DHT22;66343;44.588;33.450;2023-02-12T12:09:02;6.98;61.50
76855;DHT22;66343;44.588;33.450;2023-02-12T12:11:40;6.94;61.02
76855;DHT22;66343;44.588;33.450;2023-02-12T12:14:28;6.88;61.25
76855;DHT22;66343;44.588;33.450;2023-02-12T12:17:05;6.88;62.54
76855;DHT22;66343;44.588;33.450;2023-02-12T12:20:08;6.83;65.43
76855;DHT22;66343;44.588;33.450;2023-02-12T12:23:06;6.67;69.72
76855;DHT22;66343;44.588;33.450;2023-02-12T12:25:53;6.68;74.09
76855;DHT22;66343;44.588;33.450;2023-02-12T12:28:40;6.63;77.08
76855;DHT22;66343;44.588;33.450;2023-02-12T12:31:23;6.50;77.10
76855;DHT22;66343;44.588;33.450;2023-02-12T12:51:27;6.16;78.72
76855;DHT22;66343;44.588;33.450;2023-02-12T12:54:24;6.21;78.05
76855;DHT22;66343;44.588;33.450;2023-02-12T12:57:30;6.15;78.95
76855;DHT22;66343;44.588;33.450;2023-02-12T13:05:57;6.06;80.36
76855;DHT22;66343;44.588;33.450;2023-02-12T13:09:09;6.07;79.06
76855;DHT22;66343;44.588;33.450;2023-02-12T13:17:42;6.01;75.22
76855;DHT22;66343;44.588;33.450;2023-02-12T13:20:30;5.96;75.89
76855;DHT22;66343;44.588;33.450;2023-02-12T13:28:53;5.98;75.23
76855;DHT22;66343;44.588;33.450;2023-02-12T13:31:28;5.95;75.90
76855;DHT22;66343;44.588;33.450;2023-02-12T13:34:04;5.94;75.67
76855;DHT22;66343;44.588;33.450;2023-02-12T13:36:36;5.97;73.99
76855;DHT22;66343;44.588;33.450;2023-02-12T13:39:11;5.95;73.54
76855;DHT22;66343;44.588;33.450;2023-02-12T13:41:46;5.99;73.47
76855;DHT22;66343;44.588;33.450;2023-02-12T13:44:41;6.02;73.28
76855;DHT22;66343;44.588;33.450;2023-02-12T13:47:37;5.97;75.58
76855;DHT22;66343;44.588;33.450;2023-02-12T13:53:00;5.96;75.61
76855;DHT22;66343;44.588;33.450;2023-02-12T13:55:53;5.96;75.58
76855;DHT22;66343;44.588;33.450;2023-02-12T13:58:55;5.93;75.25
76855;DHT22;66343;44.588;33.450;2023-02-12T14:01:44;5.86;75.73
76855;DHT22;66343;44.588;33.450;2023-02-12T14:12:49;5.74;75.86
76855;DHT22;66343;44.588;33.450;2023-02-12T14:15:32;5.75;75.19
76855;DHT22;66343;44.588;33.450;2023-02-12T14:18:31;5.75;75.43
76855;DHT22;66343;44.588;33.450;2023-02-12T14:23:56;5.53;73.78
76855;DHT22;66343;44.588;33.450;2023-02-12T14:26:45;5.47;73.78
76855;DHT22;66343;44.588;33.450;2023-02-12T14:29:18;5.41;73.23
76855;DHT22;66343;44.588;33.450;2023-02-12T14:31:52;5.42;73.71
76855;DHT22;66343;44.588;33.450;2023-02-12T14:34:50;5.37;74.16
76855;DHT22;66343;44.588;33.450;2023-02-12T14:37:36;5.37;73.97
76855;DHT22;66343;44.588;33.450;2023-02-12T14:48:59;5.25;74.30
76855;DHT22;66343;44.588;33.450;2023-02-12T14:54:53;5.26;74.09
76855;DHT22;66343;44.588;33.450;2023-02-12T14:57:28;5.22;74.01
76855;DHT22;66343;44.588;33.450;2023-02-12T15:03:06;5.21;73.42
76855;DHT22;66343;44.588;33.450;2023-02-12T15:11:40;5.25;72.41
76855;DHT22;66343;44.588;33.450;2023-02-12T15:14:26;5.22;72.73
76855;DHT22;66343;44.588;33.450;2023-02-12T15:17:21;5.13;72.71
76855;DHT22;66343;44.588;33.450;2023-02-12T15:20:27;5.10;70.53
76855;DHT22;66343;44.588;33.450;2023-02-12T15:23:33;5.08;69.30
76855;DHT22;66343;44.588;33.450;2023-02-12T15:26:04;5.06;69.13
76855;DHT22;66343;44.588;33.450;2023-02-12T15:28:38;5.05;68.43
76855;DHT22;66343;44.588;33.450;2023-02-12T15:31:18;5.03;68.50
76855;DHT22;66343;44.588;33.450;2023-02-12T15:33:51;5.00;69.16
76855;DHT22;66343;44.588;33.450;2023-02-12T15:36:25;4.96;69.56
76855;DHT22;66343;44.588;33.450;2023-02-12T15:39:03;5.00;70.09
76855;DHT22;66343;44.588;33.450;2023-02-12T15:41:38;5.04;69.75
76855;DHT22;66343;44.588;33.450;2023-02-12T15:44:28;5.02;69.39
76855;DHT22;66343;44.588;33.450;2023-02-12T15:47:11;5.07;69.33
76855;DHT22;66343;44.588;33.450;2023-02-12T15:49:44;5.09;69.17
76855;DHT22;66343;44.588;33.450;2023-02-12T15:52:21;5.05;69.04
76855;DHT22;66343;44.588;33.450;2023-02-12T15:54:58;5.10;69.61
76855;DHT22;66343;44.588;33.450;2023-02-12T15:57:35;5.11;69.87
76855;DHT22;66343;44.588;33.450;2023-02-12T16:00:30;5.12;70.32
76855;DHT22;66343;44.588;33.450;2023-02-12T16:03:13;5.10;70.55
76855;DHT22;66343;44.588;33.450;2023-02-12T16:05:45;5.06;71.05
76855;DHT22;66343;44.588;33.450;2023-02-12T16:08:19;5.02;71.55
76855;DHT22;66343;44.588;33.450;2023-02-12T16:10:52;5.09;71.31
76855;DHT22;66343;44.588;33.450;2023-02-12T16:13:32;5.13;71.55
76855;DHT22;66343;44.588;33.450;2023-02-12T16:16:19;5.17;71.42
76855;DHT22;66343;44.588;33.450;2023-02-12T16:19:18;5.15;71.48
76855;DHT22;66343;44.588;33.450;2023-02-12T16:22:07;5.13;71.58
76855;DHT22;66343;44.588;33.450;2023-02-12T16:24:45;5.11;71.90
76855;DHT22;66343;44.588;33.450;2023-02-12T16:27:21;5.13;71.74
76855;DHT22;66343;44.588;33.450;2023-02-12T16:29:55;5.09;71.71
76855;DHT22;66343;44.588;33.450;2023-02-12T16:32:38;5.09;71.74
76855;DHT22;66343;44.588;33.450;2023-02-12T16:37:49;5.07;71.21
76855;DHT22;66343;44.588;33.450;2023-02-12T16:40:25;5.13;71.27
76855;DHT22;66343;44.588;33.450;2023-02-12T16:43:21;5.19;71.34
76855;DHT22;66343;44.588;33.450;2023-02-12T16:46:02;5.19;71.42
76855;DHT22;66343;44.588;33.450;2023-02-12T16:48:54;5.19;70.71
76855;DHT22;66343;44.588;33.450;2023-02-12T16:51:34;5.18;68.91
76855;DHT22;66343;44.588;33.450;2023-02-12T16:54:25;5.18;67.01
76855;DHT22;66343;44.588;33.450;2023-02-12T16:56:57;5.22;64.91
76855;DHT22;66343;44.588;33.450;2023-02-12T16:59:33;5.22;66.50
76855;DHT22;66343;44.588;33.450;2023-02-12T17:02:13;5.22;65.50
76855;DHT22;66343;44.588;33.450;2023-02-12T17:04:43;5.17;63.69
76855;DHT22;66343;44.588;33.450;2023-02-12T17:07:22;5.21;61.58
76855;DHT22;66343;44.588;33.450;2023-02-12T17:09:56;5.09;59.32
76855;DHT22;66343;44.588;33.450;2023-02-12T17:12:32;5.13;60.27
76855;DHT22;66343;44.588;33.450;2023-02-12T17:15:05;5.13;58.94
76855;DHT22;66343;44.588;33.450;2023-02-12T17:17:47;5.10;58.10
76855;DHT22;66343;44.588;33.450;2023-02-12T17:20:19;5.08;59.27
76855;DHT22;66343;44.588;33.450;2023-02-12T17:22:59;5.10;58.14
76855;DHT22;66343;44.588;33.450;2023-02-12T17:25:31;5.11;57.96
76855;DHT22;66343;44.588;33.450;2023-02-12T17:28:07;5.11;58.15
76855;DHT22;66343;44.588;33.450;2023-02-12T17:30:40;5.11;57.53
76855;DHT22;66343;44.588;33.450;2023-02-12T17:33:11;5.15;57.74
76855;DHT22;66343;44.588;33.450;2023-02-12T17:35:41;5.13;58.49
76855;DHT22;66343;44.588;33.450;2023-02-12T17:38:15;5.07;59.21
76855;DHT22;66343;44.588;33.450;2023-02-12T17:40:48;5.10;58.82
76855;DHT22;66343;44.588;33.450;2023-02-12T17:43:25;5.10;58.96
76855;DHT22;66343;44.588;33.450;2023-02-12T17:46:10;5.07;58.89
76855;DHT22;66343;44.588;33.450;2023-02-12T17:48:41;4.95;59.14
76855;DHT22;66343;44.588;33.450;2023-02-12T17:51:16;4.86;60.29
76855;DHT22;66343;44.588;33.450;2023-02-12T17:53:46;4.79;59.65
76855;DHT22;66343;44.588;33.450;2023-02-12T17:56:21;4.74;61.57
76855;DHT22;66343;44.588;33.450;2023-02-12T17:58:54;4.71;62.12
76855;DHT22;66343;44.588;33.450;2023-02-12T18:01:27;4.66;59.96
76855;DHT22;66343;44.588;33.450;2023-02-12T18:03:57;4.53;60.11
76855;DHT22;66343;44.588;33.450;2023-02-12T18:06:30;4.39;60.96
76855;DHT22;66343;44.588;33.450;2023-02-12T18:09:00;4.34;60.38
76855;DHT22;66343;44.588;33.450;2023-02-12T18:11:30;4.28;60.17
76855;DHT22;66343;44.588;33.450;2023-02-12T18:14:01;4.17;59.28
76855;DHT22;66343;44.588;33.450;2023-02-12T18:16:38;4.08;59.19
76855;DHT22;66343;44.588;33.450;2023-02-12T18:19:09;4.03;58.06
76855;DHT22;66343;44.588;33.450;2023-02-12T18:21:41;3.98;58.42
76855;DHT22;66343;44.588;33.450;2023-02-12T18:24:10;3.92;57.55
76855;DHT22;66343;44.588;33.450;2023-02-12T18:26:43;3.94;57.26
76855;DHT22;66343;44.588;33.450;2023-02-12T18:29:14;3.91;57.35
76855;DHT22;66343;44.588;33.450;2023-02-12T18:31:43;3.88;57.33
76855;DHT22;66343;44.588;33.450;2023-02-12T18:34:17;3.85;57.58
76855;DHT22;66343;44.588;33.450;2023-02-12T18:36:48;3.82;57.16
76855;DHT22;66343;44.588;33.450;2023-02-12T18:39:20;3.79;56.17
76855;DHT22;66343;44.588;33.450;2023-02-12T18:41:54;3.76;56.39
76855;DHT22;66343;44.588;33.450;2023-02-12T18:44:26;3.76;56.72
76855;DHT22;66343;44.588;33.450;2023-02-12T18:46:56;3.72;55.87
76855;DHT22;66343;44.588;33.450;2023-02-12T18:49:27;3.63;55.57
76855;DHT22;66343;44.588;33.450;2023-02-12T18:51:56;3.62;56.08
76855;DHT22;66343;44.588;33.450;2023-02-12T18:54:28;3.62;56.55
76855;DHT22;66343;44.588;33.450;2023-02-12T18:56:58;3.52;54.71
76855;DHT22;66343;44.588;33.450;2023-02-12T18:59:28;3.52;56.15
76855;DHT22;66343;44.588;33.450;2023-02-12T19:01:58;3.50;56.30
76855;DHT22;66343;44.588;33.450;2023-02-12T19:04:28;3.47;56.84
76855;DHT22;66343;44.588;33.450;2023-02-12T19:06:58;3.53;56.58
76855;DHT22;66343;44.588;33.450;2023-02-12T19:09:27;3.50;55.55
76855;DHT22;66343;44.588;33.450;2023-02-12T19:11:58;3.52;56.70
76855;DHT22;66343;44.588;33.450;2023-02-12T19:14:28;3.49;56.84
76855;DHT22;66343;44.588;33.450;2023-02-12T19:17:02;3.55;56.32
76855;DHT22;66343;44.588;33.450;2023-02-12T19:19:51;3.57;56.79
76855;DHT22;66343;44.588;33.450;2023-02-12T19:22:24;3.54;56.64
76855;DHT22;66343;44.588;33.450;2023-02-12T19:24:54;3.57;56.26
76855;DHT22;66343;44.588;33.450;2023-02-12T19:27:29;3.52;55.43
76855;DHT22;66343;44.588;33.450;2023-02-12T19:30:06;3.52;54.18
76855;DHT22;66343;44.588;33.450;2023-02-12T19:32:41;3.50;54.52
76855;DHT22;66343;44.588;33.450;2023-02-12T19:35:19;3.48;53.52
76855;DHT22;66343;44.588;33.450;2023-02-12T19:37:54;3.47;53.87
76855;DHT22;66343;44.588;33.450;2023-02-12T19:40:27;3.45;53.89
76855;DHT22;66343;44.588;33.450;2023-02-12T19:43:05;3.44;54.58
76855;DHT22;66343;44.588;33.450;2023-02-12T19:45:41;3.44;54.43
76855;DHT22;66343;44.588;33.450;2023-02-12T19:48:15;3.46;54.88
76855;DHT22;66343;44.588;33.450;2023-02-12T19:50:47;3.50;54.39
76855;DHT22;66343;44.588;33.450;2023-02-12T19:53:21;3.50;54.46
76855;DHT22;66343;44.588;33.450;2023-02-12T19:55:54;3.46;53.84
76855;DHT22;66343;44.588;33.450;2023-02-12T19:58:30;3.52;53.78
76855;DHT22;66343;44.588;33.450;2023-02-12T20:01:07;3.58;54.18
76855;DHT22;66343;44.588;33.450;2023-02-12T20:03:37;3.55;54.64
76855;DHT22;66343;44.588;33.450;2023-02-12T20:06:10;3.59;54.65
76855;DHT22;66343;44.588;33.450;2023-02-12T20:08:42;3.61;54.36
76855;DHT22;66343;44.588;33.450;2023-02-12T20:11:25;3.61;55.16
76855;DHT22;66343;44.588;33.450;2023-02-12T20:14:00;3.65;55.50
76855;DHT22;66343;44.588;33.450;2023-02-12T20:16:32;3.64;55.20
76855;DHT22;66343;44.588;33.450;2023-02-12T20:19:17;3.69;55.16
76855;DHT22;66343;44.588;33.450;2023-02-12T20:21:47;3.59;54.37
76855;DHT22;66343;44.588;33.450;2023-02-12T20:24:26;3.62;53.84
76855;DHT22;66343;44.588;33.450;2023-02-12T20:27:00;3.56;54.09
76855;DHT22;66343;44.588;33.450;2023-02-12T20:29:30;3.53;55.23
76855;DHT22;66343;44.588;33.450;2023-02-12T20:32:06;3.42;56.05
76855;DHT22;66343;44.588;33.450;2023-02-12T20:34:38;3.35;55.49
76855;DHT22;66343;44.588;33.450;2023-02-12T20:37:20;3.25;54.61
76855;DHT22;66343;44.588;33.450;2023-02-12T20:39:49;3.34;55.34
76855;DHT22;66343;44.588;33.450;2023-02-12T20:42:19;3.36;55.26
76855;DHT22;66343;44.588;33.450;2023-02-12T20:44:51;3.34;55.27
76855;DHT22;66343;44.588;33.450;2023-02-12T20:47:25;3.28;54.41
76855;DHT22;66343;44.588;33.450;2023-02-12T20:49:57;3.33;56.36
76855;DHT22;66343;44.588;33.450;2023-02-12T20:52:26;3.32;53.06
76855;DHT22;66343;44.588;33.450;2023-02-12T20:54:55;3.33;51.11
76855;DHT22;66343;44.588;33.450;2023-02-12T20:57:25;3.27;50.86
76855;DHT22;66343;44.588;33.450;2023-02-12T20:59:56;3.27;49.43
76855;DHT22;66343;44.588;33.450;2023-02-12T21:02:29;3.26;49.15
76855;DHT22;66343;44.588;33.450;2023-02-12T21:04:59;3.16;48.15
76855;DHT22;66343;44.588;33.450;2023-02-12T21:07:30;3.15;48.57
76855;DHT22;66343;44.588;33.450;2023-02-12T21:09:59;3.13;48.97
76855;DHT22;66343;44.588;33.450;2023-02-12T21:12:31;3.10;49.80
76855;DHT22;66343;44.588;33.450;2023-02-12T21:15:00;3.04;49.47
76855;DHT22;66343;44.588;33.450;2023-02-12T21:17:31;3.08;49.56
76855;DHT22;66343;44.588;33.450;2023-02-12T21:20:07;3.05;48.08
76855;DHT22;66343;44.588;33.450;2023-02-12T21:22:36;3.00;47.79
76855;DHT22;66343;44.588;33.450;2023-02-12T21:25:05;3.04;48.77
76855;DHT22;66343;44.588;33.450;2023-02-12T21:27:35;3.01;49.68
76855;DHT22;66343;44.588;33.450;2023-02-12T21:30:10;2.97;48.27
76855;DHT22;66343;44.588;33.450;2023-02-12T21:32:39;2.95;48.12
76855;DHT22;66343;44.588;33.450;2023-02-12T21:35:08;2.98;49.30
76855;DHT22;66343;44.588;33.450;2023-02-12T21:37:37;2.99;48.63
76855;DHT22;66343;44.588;33.450;2023-02-12T21:40:07;3.00;50.59
76855;DHT22;66343;44.588;33.450;2023-02-12T21:42:36;3.01;50.13
76855;DHT22;66343;44.588;33.450;2023-02-12T21:45:08;3.04;50.59
76855;DHT22;66343;44.588;33.450;2023-02-12T21:47:40;3.01;48.98
76855;DHT22;66343;44.588;33.450;2023-02-12T21:50:15;2.98;49.04
76855;DHT22;66343;44.588;33.450;2023-02-12T21:52:44;2.96;46.12
76855;DHT22;66343;44.588;33.450;2023-02-12T21:55:13;2.90;48.48
76855;DHT22;66343;44.588;33.450;2023-02-12T21:57:43;2.96;49.93
76855;DHT22;66343;44.588;33.450;2023-02-12T22:00:20;3.03;49.79
76855;DHT22;66343;44.588;33.450;2023-02-12T22:02:52;3.05;48.02
76855;DHT22;66343;44.588;33.450;2023-02-12T22:05:22;3.06;49.27
76855;DHT22;66343;44.588;33.450;2023-02-12T22:07:54;3.06;45.45
76855;DHT22;66343;44.588;33.450;2023-02-12T22:10:26;3.02;44.70
76855;DHT22;66343;44.588;33.450;2023-02-12T22:12:56;3.00;43.23
76855;DHT22;66343;44.588;33.450;2023-02-12T22:15:25;3.02;45.52
76855;DHT22;66343;44.588;33.450;2023-02-12T22:17:54;3.03;45.82
76855;DHT22;66343;44.588;33.450;2023-02-12T22:20:25;3.04;45.69
76855;DHT22;66343;44.588;33.450;2023-02-12T22:22:54;3.05;45.67
76855;DHT22;66343;44.588;33.450;2023-02-12T22:25:23;3.03;46.68
76855;DHT22;66343;44.588;33.450;2023-02-12T22:27:55;2.98;46.86
76855;DHT22;66343;44.588;33.450;2023-02-12T22:30:24;2.99;47.22
76855;DHT22;66343;44.588;33.450;2023-02-12T22:32:53;2.97;47.07
76855;DHT22;66343;44.588;33.450;2023-02-12T22:35:22;2.97;46.81
76855;DHT22;66343;44.588;33.450;2023-02-12T22:37:52;2.96;49.81
76855;DHT22;66343;44.588;33.450;2023-02-12T22:40:26;2.95;47.77
76855;DHT22;66343;44.588;33.450;2023-02-12T22:42:55;2.94;49.14
76855;DHT22;66343;44.588;33.450;2023-02-12T22:45:24;2.93;48.75
76855;DHT22;66343;44.588;33.450;2023-02-12T22:47:53;2.94;47.79
76855;DHT22;66343;44.588;33.450;2023-02-12T22:50:23;2.95;49.24
76855;DHT22;66343;44.588;33.450;2023-02-12T22:52:52;2.96;48.81
76855;DHT22;66343;44.588;33.450;2023-02-12T22:55:21;2.89;48.25
76855;DHT22;66343;44.588;33.450;2023-02-12T22:57:55;2.89;50.63
76855;DHT22;66343;44.588;33.450;2023-02-12T23:00:24;2.89;50.19
76855;DHT22;66343;44.588;33.450;2023-02-12T23:02:55;2.89;48.47
76855;DHT22;66343;44.588;33.450;2023-02-12T23:05:24;2.83;49.56
76855;DHT22;66343;44.588;33.450;2023-02-12T23:07:54;2.84;45.99
76855;DHT22;66343;44.588;33.450;2023-02-12T23:10:23;2.84;45.16
76855;DHT22;66343;44.588;33.450;2023-02-12T23:12:52;2.91;45.53
76855;DHT22;66343;44.588;33.450;2023-02-12T23:15:24;2.94;46.23
76855;DHT22;66343;44.588;33.450;2023-02-12T23:17:53;2.91;47.49
76855;DHT22;66343;44.588;33.450;2023-02-12T23:20:22;2.86;49.29
76855;DHT22;66343;44.588;33.450;2023-02-12T23:22:53;2.86;49.43
76855;DHT22;66343;44.588;33.450;2023-02-12T23:25:22;2.85;48.33
76855;DHT22;66343;44.588;33.450;2023-02-12T23:27:52;2.86;48.79
76855;DHT22;66343;44.588;33.450;2023-02-12T23:30:22;2.84;49.16
76855;DHT22;66343;44.588;33.450;2023-02-12T23:32:51;2.79;47.92
76855;DHT22;66343;44.588;33.450;2023-02-12T23:35:19;2.78;48.70
76855;DHT22;66343;44.588;33.450;2023-02-12T23:37:49;2.73;48.60
76855;DHT22;66343;44.588;33.450;2023-02-12T23:40:19;2.74;49.21
76855;DHT22;66343;44.588;33.450;2023-02-12T23:42:48;2.75;50.85
76855;DHT22;66343;44.588;33.450;2023-02-12T23:45:20;2.73;49.59
76855;DHT22;66343;44.588;33.450;2023-02-12T23:47:49;2.69;50.18
76855;DHT22;66343;44.588;33.450;2023-02-12T23:50:21;2.67;49.18
76855;DHT22;66343;44.588;33.450;2023-02-12T23:52:53;2.68;49.38
76855;DHT22;66343;44.588;33.450;2023-02-12T23:55:22;2.66;49.05
76855;DHT22;66343;44.588;33.450;2023-02-12T23:57:52;2.68;48.49
